createdAt,value
2017-10-02T11:56:27.297Z,93.1
2017-10-02T11:57:30.065Z,93.5
2017-10-02T11:58:32.500Z,93.5
2017-10-02T11:59:35.156Z,93.6
2017-10-02T12:00:37.769Z,93.5
2017-10-02T12:01:40.226Z,93.5
2017-10-02T12:02:42.659Z,93.5
2017-10-02T12:03:45.477Z,93.6
2017-10-02T12:04:48.254Z,93.7
2017-10-02T12:05:50.739Z,93.7
2017-10-02T12:06:53.194Z,93.6
2017-10-02T12:07:55.628Z,93.6
2017-10-02T12:08:58.070Z,93.6
2017-10-02T12:10:00.510Z,93.6
2017-10-02T12:11:03.350Z,93.5
2017-10-02T12:12:05.793Z,93.5
2017-10-02T12:13:08.226Z,93.6
2017-10-02T12:14:11.013Z,93.7
2017-10-02T12:15:13.442Z,93.8
2017-10-02T12:16:15.869Z,93.8
2017-10-02T12:17:18.310Z,93.8
2017-10-02T12:18:20.754Z,93.9
2017-10-02T12:19:23.393Z,93.8
2017-10-02T12:20:25.832Z,93.7
2017-10-02T12:21:28.309Z,93.7
2017-10-02T12:22:30.739Z,93.7
2017-10-02T12:23:33.379Z,93.6
2017-10-02T12:24:35.806Z,93.6
2017-10-02T12:25:38.242Z,93.7
2017-10-02T12:26:40.727Z,93.7
2017-10-02T12:27:43.161Z,93.8
2017-10-02T12:28:45.638Z,93.7
2017-10-02T12:29:48.072Z,93.8
2017-10-02T12:30:50.612Z,93.8
2017-10-02T12:31:53.467Z,93.8
2017-10-02T12:32:55.886Z,93.7
2017-10-02T12:33:58.342Z,93.7
2017-10-02T12:35:00.832Z,93.8
2017-10-02T12:36:03.270Z,93.9
2017-10-02T12:37:05.712Z,93.8
2017-10-02T12:38:08.129Z,93.8
2017-10-02T12:39:10.571Z,93.7
2017-10-02T12:40:13.366Z,93.7
2017-10-02T12:41:15.790Z,93.6
2017-10-02T12:42:18.232Z,93.6
2017-10-02T12:43:20.671Z,93.6
2017-10-02T12:44:23.121Z,93.6
2017-10-02T12:45:26.273Z,93.6
2017-10-02T12:46:28.816Z,93.6
2017-10-02T12:47:31.244Z,93.7
2017-10-02T12:48:33.714Z,93.7
2017-10-02T12:49:36.173Z,93.7
2017-10-02T12:50:38.957Z,93.6
2017-10-02T12:51:41.394Z,93.6
2017-10-02T12:52:44.177Z,93.6
2017-10-02T12:53:46.597Z,93.5
2017-10-02T12:54:49.392Z,93.4
2017-10-02T12:55:51.836Z,93.5
2017-10-02T12:56:54.260Z,93.4
2017-10-02T12:57:56.699Z,93.5
2017-10-02T12:58:59.494Z,93.6
2017-10-02T13:00:01.934Z,93.7
2017-10-02T13:01:04.744Z,93.7
2017-10-02T13:02:07.613Z,93.7
2017-10-02T13:03:10.414Z,93.7
2017-10-02T13:04:12.861Z,93.7
2017-10-02T13:05:15.470Z,93.9
2017-10-02T13:06:17.929Z,94
2017-10-02T13:07:20.450Z,94
2017-10-02T13:08:22.892Z,93.9
2017-10-02T13:09:25.322Z,94
2017-10-02T13:10:27.777Z,94
2017-10-02T13:11:30.202Z,94.1
2017-10-02T13:12:32.646Z,94.2
2017-10-02T13:13:35.132Z,94.2
2017-10-02T13:14:37.915Z,94.1
2017-10-02T13:15:40.447Z,94.2
2017-10-02T13:16:42.887Z,94.1
2017-10-02T13:17:45.658Z,94.1
2017-10-02T13:18:48.103Z,94.1
2017-10-02T13:19:50.617Z,93.9
2017-10-02T13:20:53.039Z,93.9
2017-10-02T13:21:55.480Z,93.7
2017-10-02T13:22:57.909Z,93.7
2017-10-02T13:24:00.352Z,93.7
2017-10-02T13:25:02.893Z,93.7
2017-10-02T13:26:05.328Z,93.8
2017-10-02T13:27:07.825Z,93.7
2017-10-02T13:28:10.266Z,93.8
2017-10-02T13:29:12.694Z,93.8
2017-10-02T13:30:15.149Z,93.8
2017-10-02T13:31:17.761Z,93.8
2017-10-02T13:32:21.188Z,93.8
2017-10-02T13:33:24.388Z,93.7
2017-10-02T13:34:27.172Z,93.8
2017-10-02T13:35:29.628Z,93.9
2017-10-02T13:36:32.070Z,94
2017-10-02T13:37:34.503Z,93.9
2017-10-02T13:38:37.138Z,93.9
2017-10-02T13:39:39.580Z,93.8
2017-10-02T13:40:42.024Z,93.7
2017-10-02T13:41:44.455Z,93.5
2017-10-02T13:42:46.960Z,93.4
2017-10-02T13:43:49.500Z,93.5
2017-10-02T13:44:51.982Z,93.6
2017-10-02T13:45:54.412Z,93.5
2017-10-02T13:46:56.858Z,93.9
2017-10-02T13:47:59.339Z,94.1
2017-10-02T13:49:01.790Z,94.1
2017-10-02T13:50:04.737Z,94.2
2017-10-02T13:51:07.175Z,94.1
2017-10-02T13:52:09.611Z,94.1
2017-10-02T13:53:12.068Z,93.8
2017-10-02T13:54:14.509Z,93.7
2017-10-02T13:55:17.027Z,93.8
2017-10-02T13:56:19.469Z,93.8
2017-10-02T13:57:21.908Z,93.7
2017-10-02T13:58:24.337Z,93.5
2017-10-02T13:59:26.774Z,93.4
2017-10-02T14:00:29.268Z,93.3
2017-10-02T14:01:31.721Z,93.3
2017-10-02T14:02:34.199Z,93.3
2017-10-02T14:03:36.646Z,93.3
2017-10-02T14:04:39.196Z,93.3
2017-10-02T14:05:41.641Z,93.3
2017-10-02T14:06:44.085Z,93.2
2017-10-02T14:07:46.522Z,93.1
2017-10-02T14:08:48.946Z,93.1
2017-10-02T14:09:51.458Z,93
2017-10-02T14:10:53.903Z,93.1
2017-10-02T14:11:56.486Z,92.8
2017-10-02T14:12:58.936Z,92.9
2017-10-02T14:14:01.368Z,92.9
2017-10-02T14:15:03.823Z,93
2017-10-02T14:16:06.268Z,93
2017-10-02T14:17:08.754Z,93.1
2017-10-02T14:18:11.210Z,93.1
2017-10-02T14:19:13.649Z,93
2017-10-02T14:20:16.071Z,93.1
2017-10-02T14:21:18.525Z,93.1
2017-10-02T14:22:21.042Z,93.1
2017-10-02T14:23:23.479Z,93.1
2017-10-02T14:24:26.282Z,93
2017-10-02T14:25:29.080Z,93
2017-10-02T14:26:31.859Z,93.1
2017-10-02T14:27:34.285Z,93
2017-10-02T14:28:37.111Z,93.1
2017-10-02T14:29:39.692Z,93
2017-10-02T14:30:42.140Z,93.1
2017-10-02T14:31:44.586Z,93
2017-10-02T14:32:47.021Z,93
2017-10-02T14:33:49.552Z,93
2017-10-02T14:34:52.001Z,93
2017-10-02T14:35:54.438Z,92.9
2017-10-02T14:36:56.879Z,92.9
2017-10-02T14:37:59.388Z,92.9
2017-10-02T14:39:01.837Z,93
2017-10-02T14:40:04.610Z,93
2017-10-02T14:41:07.401Z,93
2017-10-02T14:42:09.843Z,92.9
2017-10-02T14:43:12.631Z,92.8
2017-10-02T14:44:15.066Z,92.8
2017-10-02T14:45:17.500Z,92.7
2017-10-02T14:46:19.939Z,92.9
2017-10-02T14:47:22.389Z,93
2017-10-02T14:48:25.178Z,93.1
2017-10-02T14:49:27.615Z,93.1
2017-10-02T14:50:31.158Z,93.2
2017-10-02T14:51:33.609Z,93.1
2017-10-02T14:52:36.042Z,93.2
2017-10-02T14:53:38.492Z,93.2
2017-10-02T14:54:41.024Z,92.9
2017-10-02T14:55:43.462Z,92.8
2017-10-02T14:56:45.907Z,92.7
2017-10-02T14:57:48.345Z,92.8
2017-10-02T14:58:50.863Z,92.8
2017-10-02T14:59:53.305Z,92.9
2017-10-02T15:00:55.758Z,93
2017-10-02T15:01:58.193Z,93
2017-10-02T15:03:00.634Z,93
2017-10-02T15:04:03.416Z,92.9
2017-10-02T15:05:05.842Z,92.9
2017-10-02T15:06:08.283Z,92.9
2017-10-02T15:07:10.719Z,93
2017-10-02T15:08:13.145Z,93
2017-10-02T15:09:15.582Z,93
2017-10-02T15:10:18.035Z,93.1
2017-10-02T15:11:20.469Z,93.2
2017-10-02T15:12:23.259Z,93.1
2017-10-02T15:13:25.803Z,93
2017-10-02T15:14:28.245Z,93.1
2017-10-02T15:15:30.686Z,93
2017-10-02T15:16:33.300Z,93
2017-10-02T15:17:35.741Z,92.9
2017-10-02T15:18:38.184Z,93
2017-10-02T15:19:41.348Z,93
2017-10-02T15:20:43.782Z,92.9
2017-10-02T15:21:46.214Z,92.9
2017-10-02T15:22:48.649Z,93
2017-10-02T15:23:51.078Z,92.9
2017-10-02T15:24:53.531Z,92.9
2017-10-02T15:25:55.964Z,93.1
2017-10-02T15:26:58.394Z,93.2
2017-10-02T15:28:00.849Z,93
2017-10-02T15:29:03.282Z,93
2017-10-02T15:30:05.718Z,92.9
2017-10-02T15:31:08.170Z,92.8
2017-10-02T15:32:10.593Z,92.8
2017-10-02T15:33:13.028Z,92.9
2017-10-02T15:34:15.459Z,92.9
2017-10-02T15:35:17.894Z,92.9
2017-10-02T15:36:20.322Z,92.9
2017-10-02T15:37:22.762Z,92.8
2017-10-02T15:38:25.191Z,92.8
2017-10-02T15:39:27.635Z,92.8
2017-10-02T15:40:30.062Z,92.9
2017-10-02T15:41:32.859Z,92.8
2017-10-02T15:42:35.484Z,92.9
2017-10-02T15:43:37.937Z,92.8
2017-10-02T15:44:40.382Z,92.9
2017-10-02T15:45:43.154Z,92.9
2017-10-02T15:46:46.274Z,92.9
2017-10-02T15:47:48.718Z,92.8
2017-10-02T15:48:51.148Z,92.8
2017-10-02T15:49:53.583Z,92.8
2017-10-02T15:50:56.003Z,92.9
2017-10-02T15:51:58.440Z,92.9
2017-10-02T15:53:00.890Z,93
2017-10-02T15:54:03.685Z,92.9
2017-10-02T15:55:06.120Z,93
2017-10-02T15:56:08.890Z,92.9
2017-10-02T15:57:11.327Z,92.9
2017-10-02T15:58:13.768Z,93
2017-10-02T15:59:16.197Z,93
2017-10-02T16:00:18.974Z,93
2017-10-02T16:01:21.406Z,93
2017-10-02T16:02:23.846Z,93
2017-10-02T16:03:26.627Z,92.9
2017-10-02T16:04:29.065Z,92.9
2017-10-02T16:05:31.492Z,92.9
2017-10-02T16:06:34.287Z,92.8
2017-10-02T16:07:36.726Z,92.9
2017-10-02T16:08:39.152Z,93
2017-10-02T16:09:41.597Z,93
2017-10-02T16:10:44.375Z,92.9
2017-10-02T16:11:46.813Z,92.9
2017-10-02T16:12:49.252Z,92.9
2017-10-02T16:13:51.698Z,92.8
2017-10-02T16:14:54.135Z,92.8
2017-10-02T16:15:56.565Z,92.8
2017-10-02T16:16:58.988Z,92.9
2017-10-02T16:18:01.422Z,92.9
2017-10-02T16:19:03.856Z,92.9
2017-10-02T16:20:06.290Z,92.9
2017-10-02T16:21:09.064Z,92.8
2017-10-02T16:22:11.497Z,92.8
2017-10-02T16:23:13.945Z,92.8
2017-10-02T16:24:16.369Z,92.9
2017-10-02T16:25:18.806Z,92.9
2017-10-02T16:26:21.249Z,92.9
2017-10-02T16:27:23.676Z,92.8
2017-10-02T16:28:26.103Z,92.8
2017-10-02T16:29:28.544Z,92.8
2017-10-02T16:30:30.961Z,92.7
2017-10-02T16:31:33.436Z,92.7
2017-10-02T16:32:35.852Z,92.7
2017-10-02T16:33:38.282Z,92.7
2017-10-02T16:34:40.727Z,92.6
2017-10-02T16:35:43.162Z,92.6
2017-10-02T16:36:45.592Z,92.7
2017-10-02T16:37:48.366Z,92.7
2017-10-02T16:38:50.800Z,92.7
2017-10-02T16:39:53.233Z,92.7
2017-10-02T16:40:56.031Z,92.6
2017-10-02T16:41:58.460Z,92.5
2017-10-02T16:43:00.900Z,92.6
2017-10-02T16:44:03.327Z,92.7
2017-10-02T16:45:05.760Z,92.7
2017-10-02T16:46:08.202Z,92.7
2017-10-02T16:47:10.636Z,92.7
2017-10-02T16:48:13.069Z,92.7
2017-10-02T16:49:15.848Z,92.7
2017-10-02T16:50:18.277Z,92.7
2017-10-02T16:51:20.723Z,92.7
2017-10-02T16:52:23.151Z,92.6
2017-10-02T16:53:25.586Z,92.6
2017-10-02T16:54:28.022Z,92.6
2017-10-02T16:55:30.452Z,92.6
2017-10-02T16:56:32.879Z,92.6
2017-10-02T16:57:35.655Z,92.7
2017-10-02T16:58:38.086Z,92.7
2017-10-02T16:59:40.513Z,92.8
2017-10-02T17:00:43.317Z,92.8
2017-10-02T17:01:45.757Z,92.8
2017-10-02T17:02:48.189Z,92.7
2017-10-02T17:03:50.635Z,92.8
2017-10-02T17:04:53.053Z,92.7
2017-10-02T17:05:56.188Z,92.7
2017-10-02T17:06:58.665Z,92.7
2017-10-02T17:08:01.090Z,92.7
2017-10-02T17:09:03.533Z,92.7
2017-10-02T17:10:06.310Z,92.7
2017-10-02T17:11:09.094Z,92.7
2017-10-02T17:12:11.537Z,92.7
2017-10-02T17:13:13.973Z,92.7
2017-10-02T17:14:16.395Z,92.6
2017-10-02T17:15:18.843Z,92.6
2017-10-02T17:16:21.263Z,92.5
2017-10-02T17:17:23.704Z,92.6
2017-10-02T17:18:26.146Z,92.6
2017-10-02T17:19:28.569Z,92.6
2017-10-02T17:20:31.351Z,92.6
2017-10-02T17:21:34.138Z,92.6
2017-10-02T17:22:36.564Z,92.7
2017-10-02T17:23:39.003Z,92.8
2017-10-02T17:24:41.434Z,92.7
2017-10-02T17:25:43.865Z,92.7
2017-10-02T17:26:46.299Z,92.8
2017-10-02T17:27:48.719Z,92.8
2017-10-02T17:28:51.164Z,92.8
2017-10-02T17:29:53.597Z,92.8
2017-10-02T17:30:56.038Z,92.8
2017-10-02T17:31:58.473Z,92.8
2017-10-02T17:33:01.274Z,92.7
2017-10-02T17:34:03.708Z,92.7
2017-10-02T17:35:06.142Z,92.7
2017-10-02T17:36:08.569Z,92.8
2017-10-02T17:37:11.009Z,92.8
2017-10-02T17:38:13.440Z,92.9
2017-10-02T17:39:15.871Z,92.9
2017-10-02T17:40:18.328Z,92.9
2017-10-02T17:41:20.759Z,92.9
2017-10-02T17:42:23.188Z,92.9
2017-10-02T17:43:25.625Z,92.9
2017-10-02T17:44:28.057Z,92.9
2017-10-02T17:45:30.492Z,92.8
2017-10-02T17:46:32.935Z,92.8
2017-10-02T17:47:35.361Z,92.9
2017-10-02T17:48:37.789Z,92.9
2017-10-02T17:49:40.234Z,92.9
2017-10-02T17:50:42.671Z,93
2017-10-02T17:51:45.098Z,93
2017-10-02T17:52:47.874Z,92.9
2017-10-02T17:53:50.305Z,92.9
2017-10-02T17:54:52.740Z,92.9
2017-10-02T17:55:55.177Z,92.8
2017-10-02T17:56:57.599Z,92.8
2017-10-02T17:58:00.044Z,92.9
2017-10-02T17:59:02.477Z,92.8
2017-10-02T18:00:04.914Z,92.8
2017-10-02T18:01:07.340Z,92.8
2017-10-02T18:02:09.765Z,92.7
2017-10-02T18:03:12.192Z,92.6
2017-10-02T18:04:14.624Z,92.7
2017-10-02T18:05:17.053Z,92.7
2017-10-02T18:06:19.480Z,92.6
2017-10-02T18:07:21.918Z,92.7
2017-10-02T18:08:24.354Z,92.6
2017-10-02T18:09:26.792Z,92.7
2017-10-02T18:10:29.248Z,92.7
2017-10-02T18:11:31.670Z,92.6
2017-10-02T18:12:34.114Z,92.7
2017-10-02T18:13:36.539Z,92.7
2017-10-02T18:14:38.978Z,92.7
2017-10-02T18:15:41.411Z,92.6
2017-10-02T18:16:43.837Z,92.7
2017-10-02T18:17:46.273Z,92.6
2017-10-02T18:18:48.717Z,92.6
2017-10-02T18:19:51.140Z,92.6
2017-10-02T18:20:53.567Z,92.6
2017-10-02T18:21:55.994Z,92.7
2017-10-02T18:22:58.436Z,92.6
2017-10-02T18:24:00.870Z,92.7
2017-10-02T18:25:03.313Z,92.6
2017-10-02T18:26:05.748Z,92.6
2017-10-02T18:27:08.189Z,92.6
2017-10-02T18:28:10.965Z,92.6
2017-10-02T18:29:13.402Z,92.6
2017-10-02T18:30:15.821Z,92.6
2017-10-02T18:31:18.252Z,92.7
2017-10-02T18:32:20.686Z,92.7
2017-10-02T18:33:23.123Z,92.7
2017-10-02T18:34:25.557Z,92.5
2017-10-02T18:35:28.048Z,92.6
2017-10-02T18:36:30.476Z,92.7
2017-10-02T18:37:32.924Z,92.7
2017-10-02T18:38:35.355Z,92.7
2017-10-02T18:39:37.786Z,92.6
2017-10-02T18:40:40.226Z,92.6
2017-10-02T18:41:42.666Z,92.7
2017-10-02T18:42:45.090Z,92.6
2017-10-02T18:43:47.569Z,92.6
2017-10-02T18:44:49.986Z,92.6
2017-10-02T18:45:52.420Z,92.6
2017-10-02T18:46:54.862Z,92.6
2017-10-02T18:47:57.639Z,92.6
2017-10-02T18:49:00.072Z,92.6
2017-10-02T18:50:02.512Z,92.5
2017-10-02T18:51:04.945Z,92.6
2017-10-02T18:52:07.374Z,92.5
2017-10-02T18:53:09.815Z,92.6
2017-10-02T18:54:12.250Z,92.6
2017-10-02T18:55:15.051Z,92.7
2017-10-02T18:56:17.473Z,92.7
2017-10-02T18:57:19.905Z,92.7
2017-10-02T18:58:22.336Z,92.6
2017-10-02T18:59:24.777Z,92.6
2017-10-02T19:00:27.200Z,92.5
2017-10-02T19:01:29.635Z,92.5
2017-10-02T19:02:32.090Z,92.4
2017-10-02T19:03:34.518Z,92.4
2017-10-02T19:04:36.952Z,92.5
2017-10-02T19:05:39.386Z,92.5
2017-10-02T19:06:41.815Z,92.5
2017-10-02T19:07:44.250Z,92.6
2017-10-02T19:08:46.688Z,92.6
2017-10-02T19:09:49.133Z,92.6
2017-10-02T19:10:51.562Z,92.6
2017-10-02T19:11:54.002Z,92.5
2017-10-02T19:12:56.443Z,92.5
2017-10-02T19:13:58.873Z,92.4
2017-10-02T19:15:01.303Z,92.4
2017-10-02T19:16:03.735Z,92.3
2017-10-02T19:17:06.159Z,92.3
2017-10-02T19:18:08.615Z,92.3
2017-10-02T19:19:11.047Z,92.3
2017-10-02T19:20:13.482Z,92.3
2017-10-02T19:21:15.923Z,92.4
2017-10-02T19:22:18.703Z,92.3
2017-10-02T19:23:21.135Z,92.3
2017-10-02T19:24:23.567Z,92.4
2017-10-02T19:25:26.005Z,92.5
2017-10-02T19:26:28.783Z,92.5
2017-10-02T19:27:31.199Z,92.5
2017-10-02T19:28:33.641Z,92.4
2017-10-02T19:29:36.082Z,92.3
2017-10-02T19:30:38.858Z,92.3
2017-10-02T19:31:41.299Z,92.3
2017-10-02T19:32:43.730Z,92.4
2017-10-02T19:33:46.164Z,92.4
2017-10-02T19:34:48.612Z,92.4
2017-10-02T19:35:51.047Z,92.3
2017-10-02T19:36:53.476Z,92.4
2017-10-02T19:37:55.913Z,92.3
2017-10-02T19:38:58.344Z,92.3
2017-10-02T19:40:00.783Z,92.4
2017-10-02T19:41:03.224Z,92.4
2017-10-02T19:42:05.646Z,92.5
2017-10-02T19:43:08.080Z,92.5
2017-10-02T19:44:10.509Z,92.5
2017-10-02T19:45:12.941Z,92.5
2017-10-02T19:46:15.374Z,92.5
2017-10-02T19:47:17.810Z,92.5
2017-10-02T19:48:20.244Z,92.5
2017-10-02T19:49:22.689Z,92.5
2017-10-02T19:50:25.116Z,92.5
2017-10-02T19:51:27.563Z,92.5
2017-10-02T19:52:30.330Z,92.5
2017-10-02T19:53:32.755Z,92.5
2017-10-02T19:54:35.186Z,92.5
2017-10-02T19:55:37.624Z,92.5
2017-10-02T19:56:40.058Z,92.4
2017-10-02T19:57:42.487Z,92.4
2017-10-02T19:58:44.918Z,92.5
2017-10-02T19:59:47.350Z,92.5
2017-10-02T20:00:49.807Z,92.5
2017-10-02T20:01:52.233Z,92.4
2017-10-02T20:02:54.673Z,92.5
2017-10-02T20:03:57.121Z,92.4
2017-10-02T20:04:59.536Z,92.4
2017-10-02T20:06:02.002Z,92.5
2017-10-02T20:07:04.442Z,92.4
2017-10-02T20:08:06.859Z,92.4
2017-10-02T20:09:09.293Z,92.4
2017-10-02T20:10:11.731Z,92.4
2017-10-02T20:11:14.161Z,92.3
2017-10-02T20:12:16.600Z,92.3
2017-10-02T20:13:19.043Z,92.3
2017-10-02T20:14:21.475Z,92.3
2017-10-02T20:15:24.621Z,92.3
2017-10-02T20:16:27.393Z,92.3
2017-10-02T20:17:29.832Z,92.3
2017-10-02T20:18:32.262Z,92.3
2017-10-02T20:19:34.708Z,92.2
2017-10-02T20:20:37.128Z,92.2
2017-10-02T20:21:39.557Z,92.1
2017-10-02T20:22:41.997Z,92.2
2017-10-02T20:23:44.431Z,92.2
2017-10-02T20:24:46.855Z,92.2
2017-10-02T20:25:49.296Z,92.1
2017-10-02T20:26:51.725Z,92.1
2017-10-02T20:27:54.154Z,92.2
2017-10-02T20:28:56.592Z,92.2
2017-10-02T20:29:59.026Z,92.3
2017-10-02T20:31:01.479Z,92.2
2017-10-02T20:32:03.915Z,92.2
2017-10-02T20:33:06.341Z,92.2
2017-10-02T20:34:08.772Z,92
2017-10-02T20:35:11.213Z,92.1
2017-10-02T20:36:13.650Z,92.1
2017-10-02T20:37:16.088Z,92
2017-10-02T20:38:18.866Z,92
2017-10-02T20:39:21.293Z,91.9
2017-10-02T20:40:23.725Z,91.9
2017-10-02T20:41:26.161Z,91.9
2017-10-02T20:42:28.589Z,91.9
2017-10-02T20:43:31.020Z,91.9
2017-10-02T20:44:33.460Z,91.9
2017-10-02T20:45:36.237Z,91.9
2017-10-02T20:46:38.675Z,91.9
2017-10-02T20:47:41.436Z,91.9
2017-10-02T20:48:43.868Z,92
2017-10-02T20:49:46.295Z,92
2017-10-02T20:50:48.722Z,92
2017-10-02T20:51:51.154Z,91.9
2017-10-02T20:52:53.575Z,91.8
2017-10-02T20:53:56.021Z,91.9
2017-10-02T20:54:58.460Z,91.9
2017-10-02T20:56:00.894Z,92
2017-10-02T20:57:03.334Z,92
2017-10-02T20:58:06.457Z,92
2017-10-02T20:59:08.887Z,92
2017-10-02T21:00:11.338Z,92
2017-10-02T21:01:13.769Z,91.9
2017-10-02T21:02:16.533Z,91.9
2017-10-02T21:03:18.971Z,91.9
2017-10-02T21:04:21.405Z,91.9
2017-10-02T21:05:24.199Z,91.9
2017-10-02T21:06:26.636Z,91.9
2017-10-02T21:07:29.057Z,91.8
2017-10-02T21:08:31.834Z,91.9
2017-10-02T21:09:34.260Z,91.9
2017-10-02T21:10:36.692Z,91.9
2017-10-02T21:11:39.131Z,91.9
2017-10-02T21:12:41.565Z,91.9
2017-10-02T21:13:43.998Z,91.8
2017-10-02T21:14:46.442Z,91.9
2017-10-02T21:15:48.875Z,91.9
2017-10-02T21:16:51.308Z,91.8
2017-10-02T21:17:53.734Z,91.8
2017-10-02T21:18:56.166Z,91.7
2017-10-02T21:19:58.601Z,91.7
2017-10-02T21:21:01.039Z,91.7
2017-10-02T21:22:03.478Z,91.8
2017-10-02T21:23:05.932Z,91.8
2017-10-02T21:24:08.364Z,91.8
2017-10-02T21:25:10.793Z,91.8
2017-10-02T21:26:13.238Z,91.8
2017-10-02T21:27:15.665Z,91.8
2017-10-02T21:28:18.094Z,91.8
2017-10-02T21:29:20.529Z,91.7
2017-10-02T21:30:22.955Z,91.6
2017-10-02T21:31:25.393Z,91.6
2017-10-02T21:32:27.831Z,91.6
2017-10-02T21:33:30.247Z,91.7
2017-10-02T21:34:32.685Z,91.8
2017-10-02T21:35:35.123Z,91.9
2017-10-02T21:36:37.552Z,91.9
2017-10-02T21:37:39.993Z,92
2017-10-02T21:38:42.416Z,92
2017-10-02T21:39:44.849Z,92
2017-10-02T21:40:47.290Z,92
2017-10-02T21:41:49.717Z,92
2017-10-02T21:42:52.154Z,92
2017-10-02T21:43:54.581Z,92
2017-10-02T21:44:57.014Z,91.9
2017-10-02T21:45:59.454Z,91.9
2017-10-02T21:47:01.884Z,92
2017-10-02T21:48:04.645Z,92.1
2017-10-02T21:49:07.087Z,92
2017-10-02T21:50:09.517Z,92
2017-10-02T21:51:11.959Z,92
2017-10-02T21:52:14.391Z,91.9
2017-10-02T21:53:16.830Z,92
2017-10-02T21:54:19.265Z,91.9
2017-10-02T21:55:21.685Z,92
2017-10-02T21:56:24.118Z,92.1
2017-10-02T21:57:26.545Z,92.1
2017-10-02T21:58:28.975Z,92.1
2017-10-02T21:59:31.399Z,92.1
2017-10-02T22:00:33.832Z,92.1
2017-10-02T22:01:36.266Z,92
2017-10-02T22:02:38.708Z,92
2017-10-02T22:03:41.134Z,92
2017-10-02T22:04:43.568Z,91.9
2017-10-02T22:05:46.012Z,92
2017-10-02T22:06:48.432Z,91.9
2017-10-02T22:07:50.865Z,91.9
2017-10-02T22:08:53.302Z,91.8
2017-10-02T22:09:55.737Z,91.8
2017-10-02T22:10:58.510Z,91.9
2017-10-02T22:12:00.943Z,91.8
2017-10-02T22:13:03.361Z,91.9
2017-10-02T22:14:05.794Z,91.9
2017-10-02T22:15:08.234Z,91.8
2017-10-02T22:16:10.657Z,91.8
2017-10-02T22:17:13.093Z,91.8
2017-10-02T22:18:15.531Z,91.9
2017-10-02T22:19:17.961Z,91.9
2017-10-02T22:20:20.407Z,91.8
2017-10-02T22:21:22.842Z,91.8
2017-10-02T22:22:25.624Z,91.8
2017-10-02T22:23:28.061Z,91.8
2017-10-02T22:24:30.830Z,91.8
2017-10-02T22:25:33.260Z,91.8
2017-10-02T22:26:35.696Z,91.9
2017-10-02T22:27:38.122Z,91.9
2017-10-02T22:28:40.556Z,91.9
2017-10-02T22:29:42.984Z,91.9
2017-10-02T22:30:45.428Z,91.8
2017-10-02T22:31:47.861Z,91.8
2017-10-02T22:32:50.299Z,91.8
2017-10-02T22:33:52.724Z,91.8
2017-10-02T22:34:55.163Z,91.9
2017-10-02T22:35:57.595Z,91.9
2017-10-02T22:37:00.033Z,91.8
2017-10-02T22:38:02.460Z,91.8
2017-10-02T22:39:04.887Z,91.7
2017-10-02T22:40:07.333Z,91.7
2017-10-02T22:41:09.759Z,91.7
2017-10-02T22:42:12.193Z,91.6
2017-10-02T22:43:14.629Z,91.7
2017-10-02T22:44:17.063Z,91.7
2017-10-02T22:45:19.502Z,91.7
2017-10-02T22:46:21.940Z,91.7
2017-10-02T22:47:24.368Z,91.8
2017-10-02T22:48:26.809Z,91.8
2017-10-02T22:49:29.244Z,91.8
2017-10-02T22:50:31.672Z,91.7
2017-10-02T22:51:34.110Z,91.7
2017-10-02T22:52:36.534Z,91.8
2017-10-02T22:53:38.967Z,91.7
2017-10-02T22:54:41.391Z,91.8
2017-10-02T22:55:43.834Z,91.8
2017-10-02T22:56:46.606Z,91.9
2017-10-02T22:57:49.045Z,91.8
2017-10-02T22:58:51.463Z,91.8
2017-10-02T22:59:53.892Z,91.8
2017-10-02T23:00:57.009Z,91.8
2017-10-02T23:01:59.447Z,91.9
2017-10-02T23:03:01.869Z,91.9
2017-10-02T23:04:04.652Z,91.9
2017-10-02T23:05:07.083Z,91.9
2017-10-02T23:06:09.841Z,91.9
2017-10-02T23:07:12.608Z,91.9
2017-10-02T23:08:15.372Z,91.9
2017-10-02T23:09:17.802Z,91.8
2017-10-02T23:10:20.235Z,91.9
2017-10-02T23:11:22.653Z,91.8
2017-10-02T23:12:25.089Z,91.9
2017-10-02T23:13:27.527Z,92
2017-10-02T23:14:29.961Z,92
2017-10-02T23:15:32.390Z,91.9
2017-10-02T23:16:35.166Z,91.9
2017-10-02T23:17:37.597Z,91.8
2017-10-02T23:18:40.018Z,91.9
2017-10-02T23:19:42.442Z,92
2017-10-02T23:20:44.884Z,92
2017-10-02T23:21:47.308Z,91.9
2017-10-02T23:22:49.731Z,91.9
2017-10-02T23:23:52.165Z,91.9
2017-10-02T23:24:54.593Z,91.9
2017-10-02T23:25:57.396Z,91.9
2017-10-02T23:26:59.831Z,91.9
2017-10-02T23:28:02.250Z,91.8
2017-10-02T23:29:04.677Z,91.8
2017-10-02T23:30:07.112Z,91.8
2017-10-02T23:31:09.537Z,91.9
2017-10-02T23:32:11.972Z,91.7
2017-10-02T23:33:14.403Z,91.8
2017-10-02T23:34:17.178Z,91.8
2017-10-02T23:35:19.614Z,91.8
2017-10-02T23:36:22.044Z,91.8
2017-10-02T23:37:24.458Z,91.9
2017-10-02T23:38:26.885Z,91.9
2017-10-02T23:39:29.309Z,92
2017-10-02T23:40:31.745Z,92
2017-10-02T23:41:34.180Z,92.1
2017-10-02T23:42:36.605Z,92.1
2017-10-02T23:43:39.035Z,92
2017-10-02T23:44:41.481Z,92
2017-10-02T23:45:43.904Z,92.1
2017-10-02T23:46:46.337Z,92.1
2017-10-02T23:47:49.102Z,92.1
2017-10-02T23:48:51.527Z,92.1
2017-10-02T23:49:53.959Z,92.1
2017-10-02T23:50:56.395Z,92.2
2017-10-02T23:51:58.812Z,92.2
2017-10-02T23:53:01.245Z,92.2
2017-10-02T23:54:04.024Z,92.1
2017-10-02T23:55:06.458Z,92.1
2017-10-02T23:56:08.900Z,92
2017-10-02T23:57:11.668Z,92
2017-10-02T23:58:14.095Z,92
2017-10-02T23:59:16.533Z,91.9
